Kezdőlap
METAR-TAF:

METAR-TAF

Repülőterek :

Fitchburg, Massachusetts, Amerikai Egyesült Államok

földrajzi szélesség: 42-33-07N, földrajzi hosszúság: 071-45-21W, magasság: 106 m

Jelenlegi meteorológiai megfigyelések

A jelentés 9 perccel ezelõtt készült, 07:52 UTC
Szélcsend
Hőmérséklet 15°C
Páratartalom 82%
Légköri nyomás 1023 hPa
Látótávolság: 16.1 km
Borult 600 lábon

METAR: KFIT 260752Z AUTO 00000KT 10SM OVC006 15/12 A3020 RMK AO2 SLP228 T01500122

Idő: 04:01 (08:01 UTC)


TAF: hiányzik

Meteorológiai megfigyelések és előrejelzések több, mint 4000 repülőtéren (METAR és TAF jelentéseket).

A térképen piros és sárga pontok jelzik az elérhető meteorológiai állomásokat.

Mozgassa az egeret a pont fölött, hogy megjelenjen az állomás neve.

Azután kattintson az időjárási megfigyelések és előrejelzések megtekintéséhez.

A térkép megváltoztatása: kattintson a fekete keresztel jelölt zöld gombra ráközelítéshez, a vonallal jelölt zöld gombra távolításhoz, vagy a zöld nyilakra a szomszédos térképek eléréséhez.


METAR-TAF: